createdAt,value
2017-07-09T13:14:50.981Z,53.50
2017-07-09T13:17:18.491Z,53.50
2017-07-09T13:19:46.020Z,52.90
2017-07-09T13:22:13.547Z,52.40
2017-07-09T13:24:41.071Z,52.00
2017-07-09T13:27:08.615Z,51.40
2017-07-09T13:29:36.129Z,50.10
2017-07-09T13:32:03.659Z,49.30
2017-07-09T13:34:31.208Z,49.40
2017-07-09T13:36:58.733Z,49.70
2017-07-09T13:39:26.246Z,50.50
2017-07-09T13:41:55.279Z,50.80
2017-07-09T13:44:22.776Z,50.50
2017-07-09T13:46:50.303Z,50.90
2017-07-09T13:49:18.203Z,50.40
2017-07-09T13:51:46.137Z,50.60
2017-07-09T13:54:13.661Z,50.70
2017-07-09T13:56:41.172Z,50.40
2017-07-09T13:59:08.713Z,48.90
2017-07-09T14:01:37.372Z,49.50
2017-07-09T14:04:04.896Z,49.00
2017-07-09T14:06:32.401Z,48.70
2017-07-09T14:09:00.319Z,49.00
2017-07-09T14:11:27.821Z,49.20
2017-07-09T14:13:55.383Z,49.40
2017-07-09T14:16:22.895Z,50.30
2017-07-09T14:18:51.233Z,49.70
2017-07-09T14:21:19.152Z,50.70
2017-07-09T14:23:46.669Z,50.40
2017-07-09T14:26:14.201Z,50.30
2017-07-09T14:28:41.701Z,51.00
2017-07-09T14:31:09.240Z,50.40
2017-07-09T14:33:37.147Z,49.90
2017-07-09T14:36:04.683Z,49.70
2017-07-09T14:38:32.194Z,50.10
2017-07-09T14:41:00.863Z,50.20
2017-07-09T14:43:28.381Z,49.80
2017-07-09T14:45:55.933Z,50.20
2017-07-09T14:48:23.835Z,49.80
2017-07-09T14:50:51.338Z,50.20
2017-07-09T14:53:18.859Z,49.90
2017-07-09T14:55:46.356Z,49.90
2017-07-09T14:58:14.643Z,50.10
2017-07-09T15:00:42.148Z,49.90
2017-07-09T15:03:09.704Z,50.30
2017-07-09T15:05:37.983Z,49.40
2017-07-09T15:08:05.920Z,49.70
2017-07-09T15:10:34.207Z,49.60
2017-07-09T15:13:01.736Z,50.00
2017-07-09T15:15:29.264Z,50.20
2017-07-09T15:17:56.775Z,50.50
2017-07-09T15:20:24.309Z,50.20
2017-07-09T15:22:51.824Z,51.10
2017-07-09T15:25:19.357Z,51.50
2017-07-09T15:27:47.268Z,51.40
2017-07-09T15:30:14.796Z,51.40
2017-07-09T15:32:42.304Z,51.40
2017-07-09T15:35:10.233Z,51.70
2017-07-09T15:37:37.758Z,51.70
2017-07-09T15:40:06.076Z,52.50
2017-07-09T15:42:33.582Z,52.40
2017-07-09T15:45:01.475Z,53.00
2017-07-09T15:47:29.050Z,51.40
2017-07-09T15:49:56.560Z,49.00
2017-07-09T15:52:24.094Z,48.40
2017-07-09T15:54:51.595Z,49.40
2017-07-09T15:57:19.880Z,49.90
2017-07-09T16:02:16.244Z,50.80
2017-07-09T16:04:44.144Z,51.90
2017-07-09T16:07:11.684Z,52.80
2017-07-09T16:09:39.184Z,54.20
2017-07-09T16:12:06.684Z,55.70
2017-07-09T16:14:34.209Z,56.40
2017-07-09T16:17:02.112Z,56.80
2017-07-09T16:19:29.637Z,57.30
2017-07-09T16:21:57.140Z,57.70
2017-07-09T16:24:24.689Z,58.70
2017-07-09T16:26:52.209Z,58.80
2017-07-09T16:29:20.487Z,58.80
2017-07-09T16:31:48.395Z,59.60
2017-07-09T16:34:16.110Z,60.60
2017-07-09T16:36:43.607Z,61.70
2017-07-09T16:39:12.652Z,61.60
2017-07-09T16:41:40.159Z,62.00
2017-07-09T16:44:08.436Z,63.50
2017-07-09T16:46:36.724Z,63.40
2017-07-09T16:49:04.221Z,63.20
2017-07-09T16:51:31.745Z,63.60
2017-07-09T16:54:00.759Z,63.60
2017-07-09T16:56:28.288Z,63.40
2017-07-09T16:58:56.564Z,63.20
2017-07-09T17:01:24.095Z,63.60
2017-07-09T17:03:52.736Z,63.10
2017-07-09T17:06:20.276Z,63.10
2017-07-09T17:08:48.924Z,62.90
2017-07-09T17:11:16.427Z,64.00
2017-07-09T17:13:43.943Z,63.70
2017-07-09T17:16:11.463Z,64.10
2017-07-09T17:18:38.999Z,64.30
2017-07-09T17:21:06.508Z,64.10
2017-07-09T17:23:34.431Z,64.20
2017-07-09T17:26:01.941Z,63.60
2017-07-09T17:28:29.467Z,63.20
2017-07-09T17:30:58.108Z,62.90
2017-07-09T17:33:26.059Z,62.50
2017-07-09T17:35:54.708Z,63.00
2017-07-09T17:38:22.207Z,63.30
2017-07-09T17:40:49.725Z,63.30
2017-07-09T17:43:17.227Z,63.10
2017-07-09T17:45:44.747Z,62.30
2017-07-09T17:48:12.256Z,62.50
2017-07-09T17:50:39.787Z,62.70
2017-07-09T17:53:07.692Z,62.80
2017-07-09T17:55:35.232Z,63.50
2017-07-09T17:58:02.745Z,63.70
2017-07-09T18:00:30.271Z,64.40
2017-07-09T18:02:57.775Z,65.20
2017-07-09T18:05:25.287Z,65.90
2017-07-09T18:07:53.203Z,66.80
2017-07-09T18:10:20.708Z,67.00
2017-07-09T18:12:48.240Z,68.50
2017-07-09T18:15:16.900Z,69.80
2017-07-09T18:17:44.428Z,69.90
2017-07-09T18:20:13.070Z,69.80
2017-07-09T18:22:41.448Z,70.90
2017-07-09T18:25:10.085Z,69.80
2017-07-09T18:27:37.618Z,69.80
2017-07-09T18:30:05.888Z,70.00
2017-07-09T18:32:33.399Z,70.10
2017-07-09T18:35:02.064Z,70.20
2017-07-09T18:39:58.467Z,70.10
2017-07-09T18:42:26.383Z,70.00
2017-07-09T18:47:23.945Z,69.80
2017-07-09T18:49:51.520Z,69.70
2017-07-09T18:52:19.797Z,70.40
2017-07-09T18:54:48.071Z,70.80
2017-07-09T18:57:16.372Z,70.30
2017-07-09T18:59:43.878Z,70.60
2017-07-09T19:02:12.176Z,70.70
2017-07-09T19:04:40.076Z,70.90
2017-07-09T19:07:07.607Z,70.90
2017-07-09T19:09:36.247Z,70.90
2017-07-09T19:12:03.779Z,70.90
2017-07-09T19:14:32.055Z,71.10
2017-07-09T19:16:59.991Z,70.90
2017-07-09T19:19:28.645Z,70.80
2017-07-09T19:21:56.188Z,71.00
2017-07-09T19:24:23.710Z,71.10
2017-07-09T19:26:51.608Z,70.80
2017-07-09T19:29:19.532Z,70.80
2017-07-09T19:31:47.035Z,70.80
2017-07-09T19:34:15.330Z,71.60
2017-07-09T19:36:43.608Z,71.50
2017-07-09T19:39:11.527Z,70.70
2017-07-09T19:41:39.427Z,70.60
2017-07-09T19:44:06.931Z,70.60
2017-07-09T19:46:34.855Z,70.30
2017-07-09T19:49:02.754Z,70.10
2017-07-09T19:51:30.275Z,70.10
2017-07-09T19:53:58.991Z,69.90
2017-07-09T19:56:26.924Z,69.50
2017-07-09T19:58:54.428Z,69.40
2017-07-09T20:01:22.722Z,69.80
2017-07-09T20:03:50.224Z,70.00
2017-07-09T20:06:17.860Z,70.30
2017-07-09T20:08:45.371Z,70.40
2017-07-09T20:11:12.876Z,70.50
2017-07-09T20:13:40.404Z,70.80
2017-07-09T20:16:07.917Z,70.70
2017-07-09T20:18:36.205Z,70.50
2017-07-09T20:21:03.724Z,70.50
2017-07-09T20:23:32.388Z,70.70
2017-07-09T20:26:00.655Z,71.30
2017-07-09T20:28:28.585Z,70.90
2017-07-09T20:30:56.093Z,71.10
2017-07-09T20:33:23.634Z,71.00
2017-07-09T20:35:51.898Z,70.20
2017-07-09T20:40:48.702Z,69.70
2017-07-09T20:43:16.232Z,70.40
2017-07-09T20:45:43.755Z,70.60
2017-07-09T20:48:11.255Z,70.70
2017-07-09T20:50:38.779Z,70.70
2017-07-09T20:53:06.280Z,71.00
2017-07-09T20:55:34.948Z,70.80
2017-07-09T20:58:03.227Z,71.00
2017-07-09T21:00:30.731Z,71.00
2017-07-09T21:02:58.255Z,71.10
2017-07-09T21:05:26.531Z,71.20
2017-07-09T21:07:54.457Z,71.20
2017-07-09T21:10:21.968Z,71.10
2017-07-09T21:12:49.509Z,71.30
2017-07-09T21:15:17.422Z,71.50
2017-07-09T21:17:44.956Z,71.20
2017-07-09T21:20:12.856Z,70.90
2017-07-09T21:22:40.380Z,71.00
2017-07-09T21:25:07.892Z,71.30
2017-07-09T21:27:36.170Z,71.50
2017-07-09T21:30:03.696Z,71.90
2017-07-09T21:32:32.340Z,71.80
2017-07-09T21:34:59.911Z,72.20
2017-07-09T21:37:28.546Z,72.50
2017-07-09T21:39:56.083Z,72.50
2017-07-09T21:42:23.605Z,72.60
2017-07-09T21:44:51.926Z,72.40
2017-07-09T21:47:20.208Z,72.20
2017-07-09T21:49:47.721Z,72.30
2017-07-09T21:52:15.243Z,72.80
2017-07-09T21:54:42.744Z,72.80
2017-07-09T21:57:10.272Z,72.90
2017-07-09T21:59:37.773Z,72.80
2017-07-09T22:02:05.296Z,72.80
2017-07-09T22:04:34.306Z,72.80
2017-07-09T22:07:01.858Z,73.10
2017-07-09T22:09:30.492Z,72.70
2017-07-09T22:11:58.003Z,72.50
2017-07-09T22:14:26.663Z,72.50
2017-07-09T22:16:55.313Z,72.30
2017-07-09T22:19:22.843Z,72.20
2017-07-09T22:21:50.355Z,72.30
2017-07-09T22:24:17.881Z,72.30
2017-07-09T22:26:45.383Z,72.50
2017-07-09T22:29:12.917Z,72.60
2017-07-09T22:31:40.416Z,72.50
2017-07-09T22:34:08.268Z,72.40
2017-07-09T22:36:35.772Z,72.40
2017-07-09T22:39:03.358Z,72.00
2017-07-09T22:41:30.883Z,72.20
2017-07-09T22:43:58.419Z,72.30
2017-07-09T22:46:25.952Z,72.40
2017-07-09T22:48:53.448Z,72.40
2017-07-09T22:51:20.963Z,72.20
2017-07-09T22:53:48.864Z,72.00
2017-07-09T22:56:16.385Z,71.70
2017-07-09T22:58:43.880Z,72.00
2017-07-09T23:01:11.464Z,71.80
2017-07-09T23:03:39.376Z,71.90
2017-07-09T23:06:07.276Z,71.80
2017-07-09T23:08:35.564Z,72.40
2017-07-09T23:11:03.099Z,71.70
2017-07-09T23:13:30.659Z,71.70
2017-07-09T23:15:58.937Z,71.60
2017-07-09T23:18:27.245Z,71.90
2017-07-09T23:20:55.145Z,71.40
2017-07-09T23:23:22.681Z,71.20
2017-07-09T23:25:50.943Z,71.10
2017-07-09T23:28:18.551Z,71.20
2017-07-09T23:30:46.850Z,71.20
2017-07-09T23:33:14.356Z,71.20
2017-07-09T23:35:41.889Z,71.50
2017-07-09T23:38:09.415Z,71.10
2017-07-09T23:40:36.950Z,71.30
2017-07-09T23:43:04.456Z,71.10
2017-07-09T23:45:32.770Z,71.00
2017-07-09T23:48:01.044Z,71.40
2017-07-09T23:50:28.579Z,71.30
2017-07-09T23:52:56.508Z,71.40
2017-07-09T23:55:24.012Z,71.60
2017-07-09T23:57:51.537Z,71.60
